Time;durP1;ratioP1;P1;durP2;ratioP2;P2;SDS_P1;SDS_P2;PMS_P1;PMS_P2;Temp;Humidity;BMP_temperature;BMP_pressure;BME280_temperature;BME280_humidity;BME280_pressure;Samples;Min_cycle;Max_cycle;Signal;HPM_P1;HPM_P2
2022/12/09 00:01:22;;;;;;;5.10;2.58;;;;;;;6.28;100.00;100049.50;5091797;28;20082;-75
2022/12/09 00:03:48;;;;;;;4.82;2.90;;;;;;;6.29;100.00;100052.91;5089764;28;20047;-75
2022/12/09 00:06:23;;;;;;;5.72;2.92;;;;;;;6.26;100.00;100048.00;5092668;28;20034;-76
2022/12/09 00:08:49;;;;;;;7.68;3.03;;;;;;;6.26;100.00;100051.41;5087738;28;20446;-75
2022/12/09 00:11:15;;;;;;;4.13;2.67;;;;;;;6.25;100.00;100051.53;5091106;28;20109;-76
2022/12/09 00:13:40;;;;;;;4.25;2.63;;;;;;;6.20;100.00;100049.31;5091154;28;20025;-74
2022/12/09 00:16:12;;;;;;;5.80;2.80;;;;;;;6.16;100.00;100050.50;5091015;28;20050;-75
2022/12/09 00:18:38;;;;;;;4.43;2.55;;;;;;;6.09;100.00;100044.22;5082980;28;20028;-75
2022/12/09 00:21:27;;;;;;;3.65;2.15;;;;;;;6.00;100.00;100044.97;5086100;28;20024;-75
2022/12/09 00:23:55;;;;;;;5.40;3.03;;;;;;;5.95;100.00;100044.53;5083247;28;20016;-75
2022/12/09 00:26:22;;;;;;;4.10;2.50;;;;;;;5.93;100.00;100047.25;5087855;28;20093;-75
2022/12/09 00:28:49;;;;;;;4.15;2.75;;;;;;;5.92;100.00;100040.44;5090617;28;20087;-75
2022/12/09 00:31:17;;;;;;;4.65;2.63;;;;;;;5.91;100.00;100048.31;5089979;28;20123;-75
2022/12/09 00:33:43;;;;;;;4.90;2.97;;;;;;;5.87;100.00;100045.13;5091215;28;20515;-75
2022/12/09 00:36:11;;;;;;;5.30;3.53;;;;;;;5.81;100.00;100042.19;5086654;28;20040;-75
2022/12/09 00:38:37;;;;;;;4.53;3.25;;;;;;;5.77;100.00;100040.81;5087965;28;20036;-75
2022/12/09 00:41:04;;;;;;;5.50;2.90;;;;;;;5.72;100.00;100041.19;5090579;28;20088;-75
2022/12/09 00:43:29;;;;;;;9.18;3.15;;;;;;;5.68;100.00;100045.78;5090825;28;20488;-76
2022/12/09 00:45:55;;;;;;;5.32;2.50;;;;;;;5.68;100.00;100040.59;5092689;28;20038;-76
2022/12/09 00:48:21;;;;;;;4.90;3.05;;;;;;;5.67;100.00;100046.72;5090565;28;20036;-76
2022/12/09 00:50:46;;;;;;;5.60;3.20;;;;;;;5.64;100.00;100047.00;5086778;28;20507;-75
2022/12/09 00:53:12;;;;;;;6.63;4.38;;;;;;;5.59;100.00;100051.69;5091619;28;20514;-76
2022/12/09 00:55:37;;;;;;;8.57;4.05;;;;;;;5.58;100.00;100050.06;5095586;28;20535;-76
2022/12/09 00:58:04;;;;;;;6.78;4.28;;;;;;;5.56;100.00;100056.28;5089266;28;20032;-74
2022/12/09 01:00:30;;;;;;;9.38;4.78;;;;;;;5.52;100.00;100054.91;5092059;28;20039;-74
2022/12/09 01:02:55;;;;;;;10.55;4.72;;;;;;;5.49;100.00;100050.78;5096174;28;20039;-75
2022/12/09 01:05:20;;;;;;;7.22;4.38;;;;;;;5.44;100.00;100046.94;5087366;28;20360;-74
2022/12/09 01:07:46;;;;;;;6.88;4.32;;;;;;;5.41;100.00;100050.56;5089228;28;20035;-74
2022/12/09 01:10:11;;;;;;;7.53;4.47;;;;;;;5.37;100.00;100051.75;5086895;28;20059;-73
2022/12/09 01:12:37;;;;;;;7.93;3.97;;;;;;;5.37;100.00;100059.50;5089537;28;20054;-73
2022/12/09 01:15:04;;;;;;;6.57;4.18;;;;;;;5.33;100.00;100052.94;5089742;28;20032;-74
2022/12/09 01:17:30;;;;;;;10.30;4.35;;;;;;;5.31;100.00;100053.06;5089462;28;20028;-74
2022/12/09 01:19:55;;;;;;;8.10;4.38;;;;;;;5.29;100.00;100060.09;5093453;28;20449;-74
2022/12/09 01:22:21;;;;;;;6.93;4.00;;;;;;;5.25;100.00;100045.78;5089889;28;20040;-74
2022/12/09 01:24:46;;;;;;;4.15;3.22;;;;;;;5.24;100.00;100044.16;5088079;28;20043;-74
2022/12/09 01:27:12;;;;;;;5.75;3.80;;;;;;;5.22;100.00;100040.03;5093835;28;20031;-75
2022/12/09 01:29:37;;;;;;;5.30;3.60;;;;;;;5.22;100.00;100040.03;5093250;28;20032;-75
2022/12/09 01:32:03;;;;;;;7.57;3.97;;;;;;;5.21;100.00;100033.22;5093463;28;20032;-75
2022/12/09 01:34:28;;;;;;;6.38;3.92;;;;;;;5.21;100.00;100033.22;5093071;28;20032;-75
2022/12/09 01:36:54;;;;;;;5.43;3.70;;;;;;;5.19;100.00;100025.63;5092447;28;20031;-75
2022/12/09 01:39:19;;;;;;;6.93;4.43;;;;;;;5.21;100.00;100026.31;5090556;28;20536;-76
2022/12/09 01:41:45;;;;;;;8.43;4.10;;;;;;;5.25;100.00;100019.13;5093388;28;20056;-75
2022/12/09 01:44:24;;;;;;;7.93;4.57;;;;;;;5.28;100.00;100013.72;5075097;28;20794;-75
2022/12/09 01:46:57;;;;;;;7.20;4.72;;;;;;;5.28;100.00;100016.31;5093406;28;20452;-75
2022/12/09 01:49:40;;;;;;;6.15;3.88;;;;;;;5.28;100.00;100000.81;5091323;28;20372;-76
2022/12/09 01:52:15;;;;;;;5.80;3.80;;;;;;;5.29;100.00;99997.28;5090618;28;20040;-76
2022/12/09 01:54:44;;;;;;;8.10;4.40;;;;;;;5.28;100.00;99982.72;5092223;28;20059;-75
2022/12/09 01:57:10;;;;;;;7.10;3.35;;;;;;;5.27;100.00;99981.09;5093059;28;20036;-75
2022/12/09 01:59:36;;;;;;;5.32;3.42;;;;;;;5.24;100.00;99983.91;5093169;28;20084;-75
2022/12/09 02:02:04;;;;;;;7.70;3.70;;;;;;;5.24;100.00;99978.75;5092890;28;20032;-75
2022/12/09 02:04:33;;;;;;;5.70;3.58;;;;;;;5.23;100.00;99969.38;5091192;28;20024;-75
2022/12/09 02:07:02;;;;;;;6.47;3.78;;;;;;;5.21;100.00;99981.56;5090546;28;20471;-76
2022/12/09 02:09:28;;;;;;;9.02;3.38;;;;;;;5.17;100.00;99969.88;5092213;28;20063;-76
2022/12/09 02:12:10;;;;;;;5.50;4.03;;;;;;;5.16;100.00;99970.81;5087268;28;20070;-75
2022/12/09 02:14:44;;;;;;;7.20;3.55;;;;;;;5.14;100.00;99970.94;5092370;28;20038;-75
2022/12/09 02:17:18;;;;;;;6.97;3.60;;;;;;;5.15;100.00;99961.44;5091018;28;20019;-76
2022/12/09 02:20:02;;;;;;;9.23;4.25;;;;;;;5.13;100.00;99958.97;5085842;28;20052;-76
2022/12/09 02:22:37;;;;;;;5.65;3.55;;;;;;;5.13;100.00;99948.63;5094149;28;20646;-77
2022/12/09 02:25:17;;;;;;;7.82;3.60;;;;;;;5.16;100.00;99950.97;5091974;28;20110;-76
2022/12/09 02:28:04;;;;;;;6.00;3.60;;;;;;;5.14;100.00;99934.78;5086061;28;20032;-76
2022/12/09 02:30:45;;;;;;;7.35;4.07;;;;;;;5.14;100.00;99942.53;5089103;28;20478;-76
2022/12/09 02:33:19;;;;;;;5.65;3.83;;;;;;;5.16;100.00;99937.25;5092443;28;20024;-76
2022/12/09 02:35:57;;;;;;;7.75;3.70;;;;;;;5.16;100.00;99937.25;5092176;28;20063;-76
2022/12/09 02:38:26;;;;;;;6.22;3.75;;;;;;;5.21;100.00;99929.91;5092230;28;20510;-76
2022/12/09 02:41:01;;;;;;;9.07;4.22;;;;;;;5.23;100.00;99928.84;5089650;28;20027;-76
2022/12/09 02:43:32;;;;;;;6.30;3.95;;;;;;;5.29;100.00;99924.97;5091872;28;20028;-76
2022/12/09 02:45:59;;;;;;;5.20;3.40;;;;;;;5.30;100.00;99924.03;5092286;28;20028;-76
2022/12/09 02:48:32;;;;;;;5.43;3.53;;;;;;;5.34;100.00;99922.84;5091863;28;20472;-76
2022/12/09 02:51:01;;;;;;;4.95;3.53;;;;;;;5.37;100.00;99920.00;5092046;28;20123;-76
2022/12/09 02:53:27;;;;;;;6.43;3.83;;;;;;;5.37;100.00;99925.16;5091682;28;20066;-76
2022/12/09 02:55:54;;;;;;;6.43;4.13;;;;;;;5.41;100.00;99921.41;5090513;28;20138;-76
2022/12/09 02:58:20;;;;;;;7.57;4.20;;;;;;;5.41;100.00;99921.41;5092565;28;20030;-76
2022/12/09 03:00:46;;;;;;;5.85;3.58;;;;;;;5.43;100.00;99922.09;5092137;28;20374;-76
2022/12/09 03:03:15;;;;;;;4.97;3.40;;;;;;;5.46;100.00;99924.44;5090775;28;20471;-76
2022/12/09 03:06:09;;;;;;;5.80;3.50;;;;;;;5.42;100.00;99917.03;5079973;28;20024;-76
2022/12/09 03:08:48;;;;;;;5.97;3.70;;;;;;;5.37;100.00;99914.84;5091268;28;20032;-76
2022/12/09 03:11:21;;;;;;;7.45;3.55;;;;;;;5.31;100.00;99897.25;5088533;28;20075;-75
2022/12/09 03:13:52;;;;;;;10.88;4.00;;;;;;;5.32;100.00;99898.88;5085464;28;20039;-76
2022/12/09 03:16:33;;;;;;;9.63;5.75;;;;;;;5.36;100.00;99897.69;5090593;28;20059;-76
2022/12/09 03:19:31;;;;;;;13.75;7.55;;;;;;;5.43;100.00;99891.09;5093317;28;20394;-76
2022/12/09 03:22:01;;;;;;;8.38;5.43;;;;;;;5.42;100.00;99888.63;5066162;28;20044;-76
2022/12/09 03:24:34;;;;;;;4.28;3.03;;;;;;;5.37;100.00;99889.00;5095367;28;20115;-76
2022/12/09 03:27:05;;;;;;;5.93;2.97;;;;;;;5.31;100.00;99874.81;5088592;28;20035;-76
2022/12/09 03:29:32;;;;;;;4.53;2.83;;;;;;;5.32;100.00;99881.63;5089347;28;20106;-76
2022/12/09 03:31:58;;;;;;;4.88;2.65;;;;;;;5.34;100.00;99884.91;5093109;28;20165;-76
2022/12/09 03:34:29;;;;;;;5.85;3.45;;;;;;;5.32;100.00;99881.63;5092778;28;20123;-77
2022/12/09 03:36:56;;;;;;;6.93;2.90;;;;;;;5.32;100.00;99879.03;5096957;28;20031;-77
2022/12/09 03:39:27;;;;;;;4.88;3.38;;;;;;;5.33;100.00;99872.09;5098128;28;20059;-77
2022/12/09 03:41:57;;;;;;;4.88;2.50;;;;;;;5.34;100.00;99866.00;5097537;28;20028;-76
2022/12/09 03:44:36;;;;;;;5.78;2.70;;;;;;;5.28;100.00;99875.06;5100045;28;20036;-76
2022/12/09 03:47:04;;;;;;;5.18;2.00;;;;;;;5.25;100.00;99871.91;5097340;28;20028;-76
2022/12/09 03:49:30;;;;;;;5.05;2.20;;;;;;;5.27;100.00;99862.28;5096595;28;20070;-76
2022/12/09 03:52:03;;;;;;;3.38;2.63;;;;;;;5.26;100.00;99858.88;5103768;28;20039;-76
2022/12/09 03:54:36;;;;;;;3.50;2.58;;;;;;;5.29;100.00;99861.22;5092985;28;20039;-76
2022/12/09 03:57:03;;;;;;;3.67;2.20;;;;;;;5.28;100.00;99857.00;5088395;28;20163;-76
2022/12/09 03:59:33;;;;;;;3.63;1.90;;;;;;;5.25;100.00;99853.84;5089974;28;20096;-77
2022/12/09 04:02:00;;;;;;;3.80;1.58;;;;;;;5.21;100.00;99850.69;5093151;28;20123;-77
2022/12/09 04:04:26;;;;;;;4.75;1.70;;;;;;;5.20;100.00;99840.50;5093748;28;20062;-77
2022/12/09 04:06:52;;;;;;;7.97;5.03;;;;;;;5.19;100.00;99839.69;5099230;28;20024;-76
2022/12/09 04:09:18;;;;;;;6.10;3.83;;;;;;;5.18;100.00;99837.22;5094947;28;20399;-77
2022/12/09 04:11:44;;;;;;;6.15;2.75;;;;;;;5.17;100.00;99836.41;5086572;28;20036;-76
2022/12/09 04:14:09;;;;;;;3.85;1.92;;;;;;;5.13;100.00;99829.03;5094118;28;20051;-76
2022/12/09 04:16:35;;;;;;;3.38;1.73;;;;;;;5.12;100.00;99824.81;5105708;28;20048;-77
2022/12/09 04:19:00;;;;;;;5.70;2.10;;;;;;;5.12;100.00;99817.06;5098853;28;20075;-77
2022/12/09 04:21:26;;;;;;;5.07;2.20;;;;;;;5.13;100.00;99818.69;5098305;28;20044;-75
2022/12/09 04:23:51;;;;;;;4.72;2.25;;;;;;;5.13;100.00;99816.13;5100340;28;20054;-76
2022/12/09 04:26:20;;;;;;;4.28;2.28;;;;;;;5.13;100.00;99814.34;5098834;28;20086;-76
2022/12/09 04:28:49;;;;;;;4.53;1.63;;;;;;;5.09;100.00;99815.56;5099198;28;20085;-76
2022/12/09 04:31:16;;;;;;;6.72;2.45;;;;;;;5.11;100.00;99800.75;5098450;28;20027;-76
2022/12/09 04:33:42;;;;;;;6.18;2.20;;;;;;;5.13;100.00;99798.88;5095161;28;20081;-76
2022/12/09 04:36:11;;;;;;;3.70;2.58;;;;;;;5.14;100.00;99797.09;5096949;28;20066;-76
2022/12/09 04:38:36;;;;;;;3.60;1.58;;;;;;;5.17;100.00;99802.03;5098919;28;20102;-77
2022/12/09 04:41:03;;;;;;;5.57;2.90;;;;;;;5.16;100.00;99797.78;5091169;28;20035;-76
2022/12/09 04:43:28;;;;;;;6.65;3.55;;;;;;;5.14;100.00;99810.00;5100944;28;20035;-77
2022/12/09 04:45:53;;;;;;;4.78;1.98;;;;;;;5.09;100.00;99801.81;5101466;28;20050;-76
2022/12/09 04:48:19;;;;;;;2.88;1.67;;;;;;;5.08;100.00;99805.34;5100174;28;20032;-76
2022/12/09 04:50:45;;;;;;;3.72;1.55;;;;;;;5.08;100.00;99805.34;5097428;28;20039;-76
2022/12/09 04:53:10;;;;;;;3.60;2.08;;;;;;;5.10;100.00;99800.88;5104357;28;20050;-77
2022/12/09 04:55:36;;;;;;;3.42;1.30;;;;;;;5.11;100.00;99805.09;5101403;28;20039;-76
2022/12/09 04:58:01;;;;;;;3.15;1.40;;;;;;;5.11;100.00;99800.75;5111952;28;20032;-76
2022/12/09 05:00:27;;;;;;;4.40;1.80;;;;;;;5.12;100.00;99796.41;5104132;28;20023;-76
2022/12/09 05:02:52;;;;;;;5.25;2.70;;;;;;;5.13;100.00;99790.28;5105692;28;20032;-76
2022/12/09 05:05:18;;;;;;;2.90;1.70;;;;;;;5.14;100.00;99789.34;5101865;28;20043;-75
2022/12/09 05:07:43;;;;;;;2.70;1.73;;;;;;;5.16;100.00;99784.88;5110177;28;20036;-76
2022/12/09 05:10:09;;;;;;;2.28;1.55;;;;;;;5.11;100.00;99779.28;5104094;28;20021;-76
2022/12/09 05:12:35;;;;;;;3.38;1.65;;;;;;;5.09;100.00;99779.41;5095943;28;20036;-76
2022/12/09 05:15:00;;;;;;;3.72;2.20;;;;;;;5.11;100.00;99768.94;5095503;28;20496;-76
2022/12/09 05:17:26;;;;;;;6.47;2.58;;;;;;;5.13;100.00;99764.47;5102909;28;20032;-76
2022/12/09 05:19:51;;;;;;;5.10;2.65;;;;;;;5.11;100.00;99756.03;5095449;28;20040;-76
2022/12/09 05:22:18;;;;;;;6.72;4.18;;;;;;;5.11;100.00;99756.03;5104806;28;20043;-76
2022/12/09 05:24:45;;;;;;;4.63;2.30;;;;;;;5.10;100.00;99751.81;5095752;28;20024;-77
2022/12/09 05:27:11;;;;;;;4.13;2.00;;;;;;;5.08;100.00;99743.38;5096986;28;20024;-76
2022/12/09 05:29:37;;;;;;;4.68;2.45;;;;;;;5.08;100.00;99743.38;5100252;28;20031;-76
2022/12/09 05:32:02;;;;;;;6.10;1.63;;;;;;;5.12;100.00;99744.75;5104296;28;20406;-77
2022/12/09 05:34:28;;;;;;;2.38;1.23;;;;;;;5.24;100.00;99746.31;5103462;28;20060;-77
2022/12/09 05:36:54;;;;;;;2.38;0.70;;;;;;;5.45;100.00;99747.09;5101741;28;20043;-77
2022/12/09 05:39:19;;;;;;;1.20;0.60;;;;;;;5.61;100.00;99736.28;5096432;28;20043;-77
2022/12/09 05:41:46;;;;;;;5.00;2.63;;;;;;;5.63;100.00;99737.81;5109808;28;20085;-77
2022/12/09 05:44:12;;;;;;;6.95;4.70;;;;;;;5.60;100.00;99740.66;5113003;28;20008;-77
2022/12/09 05:46:37;;;;;;;4.57;2.65;;;;;;;5.61;100.00;99737.09;5120611;28;20020;-77
2022/12/09 05:49:06;;;;;;;5.32;2.90;;;;;;;5.67;100.00;99730.59;5122223;28;20037;-77
2022/12/09 05:51:32;;;;;;;2.92;1.38;;;;;;;5.72;100.00;99732.78;5110417;28;20028;-77
2022/12/09 05:54:03;;;;;;;1.98;1.10;;;;;;;5.72;100.00;99737.94;5103947;28;20064;-77
2022/12/09 05:56:29;;;;;;;3.10;1.40;;;;;;;5.66;100.00;99732.38;5104540;28;20032;-77
2022/12/09 05:58:55;;;;;;;2.70;1.45;;;;;;;5.61;100.00;99731.13;5105107;28;20028;-77
2022/12/09 06:01:21;;;;;;;2.13;0.90;;;;;;;5.56;100.00;99728.94;5099283;28;20020;-76
2022/12/09 06:03:48;;;;;;;1.85;0.90;;;;;;;5.49;100.00;99725.22;5097474;28;20359;-76
2022/12/09 06:06:16;;;;;;;1.65;0.80;;;;;;;5.45;100.00;99715.28;5102293;28;20051;-77
2022/12/09 06:08:43;;;;;;;3.83;0.73;;;;;;;5.39;100.00;99701.13;5105583;28;20024;-76
2022/12/09 06:11:14;;;;;;;2.10;0.70;;;;;;;5.36;100.00;99701.38;5102427;28;20052;-77
2022/12/09 06:13:40;;;;;;;2.85;1.80;;;;;;;5.32;100.00;99705.97;5104663;28;20048;-76
2022/12/09 06:16:06;;;;;;;5.32;1.75;;;;;;;5.29;100.00;99701.06;5106621;28;20035;-76
2022/12/09 06:18:32;;;;;;;3.58;1.60;;;;;;;5.28;100.00;99696.03;5104024;28;20031;-75
2022/12/09 06:20:58;;;;;;;3.15;1.67;;;;;;;5.28;100.00;99691.69;5105257;28;20040;-76
2022/12/09 06:23:24;;;;;;;4.90;1.60;;;;;;;5.29;100.00;99697.66;5106925;28;20030;-76
2022/12/09 06:25:49;;;;;;;2.45;0.85;;;;;;;5.31;100.00;99688.03;5109885;28;20077;-76
2022/12/09 06:28:14;;;;;;;3.15;1.25;;;;;;;5.31;100.00;99685.44;5107376;28;20032;-75
2022/12/09 06:30:40;;;;;;;2.88;1.30;;;;;;;5.33;100.00;99680.97;5105576;28;20030;-76
2022/12/09 06:33:06;;;;;;;3.42;0.85;;;;;;;5.36;100.00;99665.19;5102953;28;20024;-76
2022/12/09 06:35:31;;;;;;;2.53;1.30;;;;;;;5.36;100.00;99675.53;5106435;28;20085;-76
2022/12/09 06:37:57;;;;;;;4.07;1.42;;;;;;;5.36;100.00;99674.72;5106038;28;20532;-75
2022/12/09 06:40:22;;;;;;;3.08;1.60;;;;;;;5.35;100.00;99666.16;5091955;28;20494;-75
2022/12/09 06:42:49;;;;;;;4.90;2.10;;;;;;;5.40;100.00;99676.09;5090562;28;20032;-75
2022/12/09 06:45:16;;;;;;;4.72;2.80;;;;;;;5.47;100.00;99672.03;5090367;28;20535;-74
2022/12/09 06:47:42;;;;;;;4.38;1.00;;;;;;;5.47;100.00;99678.03;5092287;28;20063;-75
2022/12/09 06:50:08;;;;;;;4.07;1.30;;;;;;;5.50;100.00;99677.78;5090513;28;20070;-75
2022/12/09 06:52:36;;;;;;;3.55;1.17;;;;;;;5.54;100.00;99673.97;5091490;28;20065;-75
2022/12/09 06:55:02;;;;;;;3.70;1.50;;;;;;;5.53;100.00;99664.59;5091666;28;20031;-75
2022/12/09 06:57:27;;;;;;;8.95;2.78;;;;;;;5.56;100.00;99659.16;5090259;28;20040;-75
2022/12/09 06:59:53;;;;;;;4.93;1.70;;;;;;;5.57;100.00;99650.47;5092222;28;20128;-75
2022/12/09 07:02:18;;;;;;;1.92;0.70;;;;;;;5.59;100.00;99658.06;5088426;28;20038;-75
2022/12/09 07:04:44;;;;;;;3.92;1.67;;;;;;;5.66;100.00;99669.53;5093676;28;20113;-75
2022/12/09 07:07:10;;;;;;;5.47;0.88;;;;;;;5.71;100.00;99664.75;5094290;28;20355;-75
2022/12/09 07:09:36;;;;;;;4.25;1.70;;;;;;;5.80;100.00;99658.78;5096854;28;20091;-76
2022/12/09 07:12:01;;;;;;;1.15;0.50;;;;;;;5.97;100.00;99647.00;5090769;28;20111;-75
2022/12/09 07:14:27;;;;;;;4.25;2.67;;;;;;;6.07;100.00;99650.44;5096075;28;20108;-76
2022/12/09 07:16:52;;;;;;;4.22;3.47;;;;;;;6.03;100.00;99649.06;5097684;28;20051;-75
2022/12/09 07:19:21;;;;;;;2.22;1.17;;;;;;;6.01;100.00;99637.22;5102988;28;20032;-76
2022/12/09 07:21:47;;;;;;;3.83;1.63;;;;;;;6.02;100.00;99638.84;5094865;28;20032;-76
2022/12/09 07:24:13;;;;;;;3.75;2.47;;;;;;;5.97;100.00;99623.75;5091792;28;20024;-75
2022/12/09 07:26:38;;;;;;;7.47;2.65;;;;;;;5.84;100.00;99618.78;5091815;28;20513;-75
2022/12/09 07:29:05;;;;;;;4.35;1.33;;;;;;;5.78;100.00;99621.09;5096288;28;20035;-75
2022/12/09 07:31:31;;;;;;;3.60;1.42;;;;;;;5.71;100.00;99622.56;5091135;28;20144;-75
2022/12/09 07:33:57;;;;;;;4.43;1.30;;;;;;;5.65;100.00;99619.59;5091633;28;20313;-76
2022/12/09 07:36:27;;;;;;;5.85;2.40;;;;;;;5.62;100.00;99613.88;5083150;28;20547;-75
2022/12/09 07:38:59;;;;;;;5.13;2.17;;;;;;;5.59;100.00;99599.47;5090044;28;20028;-75
2022/12/09 07:41:25;;;;;;;7.18;1.55;;;;;;;5.57;100.00;99591.03;5089643;28;20085;-75
2022/12/09 07:43:51;;;;;;;4.63;2.50;;;;;;;5.60;100.00;99587.34;5084868;28;20028;-75
2022/12/09 07:46:18;;;;;;;5.20;3.60;;;;;;;5.63;100.00;99582.75;5089842;28;20119;-75
2022/12/09 07:48:44;;;;;;;4.47;1.85;;;;;;;5.66;100.00;99582.47;5088713;28;20468;-75
2022/12/09 07:51:10;;;;;;;4.78;2.70;;;;;;;5.72;100.00;99590.63;5089122;28;20047;-75
2022/12/09 07:53:36;;;;;;;3.58;2.40;;;;;;;5.71;100.00;99589.78;5088736;28;20439;-75
2022/12/09 07:56:07;;;;;;;5.47;2.33;;;;;;;5.66;100.00;99579.88;5087360;28;20027;-75
2022/12/09 07:58:34;;;;;;;4.25;1.30;;;;;;;5.59;100.00;99573.63;5086238;28;20051;-75
2022/12/09 08:01:06;;;;;;;1.60;1.10;;;;;;;5.57;100.00;99572.94;5086578;28;20390;-75
2022/12/09 08:03:32;;;;;;;2.70;1.17;;;;;;;5.60;100.00;99566.69;5086923;28;20501;-75
2022/12/09 08:05:58;;;;;;;2.72;1.73;;;;;;;5.60;100.00;99570.09;5086930;28;20032;-75
2022/12/09 08:08:23;;;;;;;3.53;1.30;;;;;;;5.60;100.00;99558.94;5090277;28;20418;-74
2022/12/09 08:10:49;;;;;;;4.03;1.58;;;;;;;5.59;100.00;99557.31;5086711;28;20081;-75
2022/12/09 08:13:15;;;;;;;1.70;1.02;;;;;;;5.64;100.00;99555.94;5089480;28;20111;-77
2022/12/09 08:15:40;;;;;;;4.45;2.35;;;;;;;5.74;100.00;99550.75;5099146;28;20037;-76
2022/12/09 08:18:06;;;;;;;6.45;4.07;;;;;;;5.82;100.00;99552.66;5093366;28;20081;-76
2022/12/09 08:20:31;;;;;;;9.18;6.10;;;;;;;5.90;100.00;99558.00;5084479;28;20028;-74
2022/12/09 08:22:57;;;;;;;9.70;7.55;;;;;;;5.98;100.00;99547.81;5084788;28;20383;-75
2022/12/09 08:25:22;;;;;;;13.70;9.85;;;;;;;6.06;100.00;99553.09;5083828;28;20117;-75
2022/12/09 08:27:48;;;;;;;15.13;10.52;;;;;;;6.11;100.00;99547.53;5092953;28;20541;-75
2022/12/09 08:30:14;;;;;;;8.18;5.93;;;;;;;6.13;100.00;99540.44;5086415;28;20047;-75
2022/12/09 08:32:39;;;;;;;13.63;3.58;;;;;;;6.10;100.00;99525.19;5088173;28;20474;-76
2022/12/09 08:35:06;;;;;;;5.35;2.50;;;;;;;5.98;100.00;99527.13;5087309;28;20770;-75
2022/12/09 08:37:31;;;;;;;5.20;1.77;;;;;;;5.92;100.00;99515.56;5091348;28;20044;-76
2022/12/09 08:39:57;;;;;;;4.32;1.35;;;;;;;5.86;100.00;99512.66;5092370;28;20421;-75
2022/12/09 08:42:22;;;;;;;5.70;2.80;;;;;;;5.81;100.00;99499.34;5089174;28;20089;-76
2022/12/09 08:44:49;;;;;;;7.07;3.00;;;;;;;5.76;100.00;99493.75;5091940;28;20059;-76
2022/12/09 08:47:15;;;;;;;5.65;2.17;;;;;;;5.73;100.00;99492.25;5081967;28;20044;-77
2022/12/09 08:49:43;;;;;;;3.80;1.80;;;;;;;5.71;100.00;99503.69;5076926;28;20166;-76
2022/12/09 08:52:08;;;;;;;6.25;2.00;;;;;;;5.77;100.00;99516.06;5082432;28;20024;-75
2022/12/09 08:54:34;;;;;;;3.35;1.92;;;;;;;5.79;100.00;99498.66;5086747;28;20028;-76
2022/12/09 08:56:59;;;;;;;5.88;2.90;;;;;;;5.82;100.00;99493.22;5087462;28;20024;-76
2022/12/09 08:59:25;;;;;;;4.82;2.03;;;;;;;5.84;100.00;99486.13;5088256;28;20337;-76
2022/12/09 09:01:50;;;;;;;6.93;2.70;;;;;;;5.86;100.00;99492.00;5092567;28;20028;-76
2022/12/09 09:04:18;;;;;;;5.07;2.33;;;;;;;5.87;100.00;99485.88;5083269;28;20559;-76
2022/12/09 09:06:47;;;;;;;3.65;1.05;;;;;;;5.89;100.00;99471.88;5091206;28;20103;-75
2022/12/09 09:09:13;;;;;;;3.05;0.70;;;;;;;5.90;100.00;99483.84;5089523;28;20536;-75
2022/12/09 09:11:39;;;;;;;4.97;1.15;;;;;;;5.88;100.00;99487.50;5086328;28;20056;-76
2022/12/09 09:14:06;;;;;;;6.38;1.35;;;;;;;5.90;100.00;99489.03;5087129;28;20032;-75
2022/12/09 09:16:33;;;;;;;4.40;1.15;;;;;;;5.87;100.00;99484.09;5089760;28;20063;-76
2022/12/09 09:18:58;;;;;;;2.83;1.50;;;;;;;5.93;100.00;99480.19;5095165;28;20024;-76
2022/12/09 09:21:28;;;;;;;5.57;1.80;;;;;;;5.99;100.00;99466.69;5090944;28;20360;-75
2022/12/09 09:23:53;;;;;;;3.50;1.73;;;;;;;6.08;100.00;99458.09;5089220;28;20102;-76
2022/12/09 09:26:22;;;;;;;4.00;1.30;;;;;;;6.10;100.00;99463.13;5096818;28;20120;-76
2022/12/09 09:28:48;;;;;;;7.43;3.72;;;;;;;6.10;100.00;99466.53;5094271;28;20032;-76
2022/12/09 09:31:17;;;;;;;4.07;2.35;;;;;;;6.13;100.00;99468.84;5097077;28;20032;-76
2022/12/09 09:33:42;;;;;;;12.48;5.00;;;;;;;6.19;100.00;99467.44;5091217;28;20480;-76
2022/12/09 09:36:12;;;;;;;10.45;4.72;;;;;;;6.19;100.00;99468.25;5081995;28;20043;-76
2022/12/09 09:38:38;;;;;;;4.03;1.75;;;;;;;6.12;100.00;99471.56;5081699;28;20097;-76
2022/12/09 09:41:44;;;;;;;6.63;3.13;;;;;;;6.07;100.00;99453.88;5088240;28;20040;-76
2022/12/09 09:44:18;;;;;;;6.05;3.13;;;;;;;5.99;100.00;99436.47;5094329;28;20043;-77
2022/12/09 09:46:46;;;;;;;8.98;4.20;;;;;;;5.98;100.00;99440.03;5099117;28;20119;-76
2022/12/09 09:49:19;;;;;;;11.68;6.20;;;;;;;6.02;100.00;99440.56;5096992;28;20035;-76
2022/12/09 09:51:46;;;;;;;4.80;2.08;;;;;;;6.05;100.00;99426.53;5093889;28;20038;-76
2022/12/09 09:54:13;;;;;;;10.00;3.80;;;;;;;6.08;100.00;99428.84;5095914;28;20038;-76
2022/12/09 09:57:05;;;;;;;5.95;3.45;;;;;;;6.10;100.00;99439.88;5096491;28;20070;-76
2022/12/09 09:59:36;;;;;;;6.00;3.33;;;;;;;6.09;100.00;99417.53;5085934;28;20040;-74
2022/12/09 10:02:10;;;;;;;5.40;2.88;;;;;;;6.03;100.00;99406.00;5092643;28;20450;-74
2022/12/09 10:05:09;;;;;;;5.18;2.50;;;;;;;6.02;100.00;99404.34;5085183;28;20376;-75
2022/12/09 10:07:41;;;;;;;5.40;2.13;;;;;;;6.11;100.00;99403.53;5086889;28;20105;-75
2022/12/09 10:10:25;;;;;;;5.10;2.20;;;;;;;6.19;100.00;99395.84;5092568;28;20460;-74
2022/12/09 10:13:14;;;;;;;6.63;2.33;;;;;;;6.27;100.00;99388.19;5092430;28;20379;-74
2022/12/09 10:16:00;;;;;;;5.15;2.65;;;;;;;6.33;100.00;99395.38;5079645;28;20480;-75
2022/12/09 10:18:37;;;;;;;3.33;1.45;;;;;;;6.42;100.00;99390.31;5089957;28;20035;-75
2022/12/09 10:21:15;;;;;;;4.03;2.17;;;;;;;6.46;100.00;99391.66;5082935;28;20162;-75
2022/12/09 10:23:41;;;;;;;3.42;2.30;;;;;;;6.49;100.00;99402.53;5091560;28;20306;-75
2022/12/09 10:26:18;;;;;;;6.72;2.95;;;;;;;6.52;100.00;99402.25;5079246;28;20112;-75
2022/12/09 10:28:46;;;;;;;13.43;9.40;;;;;;;6.55;100.00;99419.25;5083375;28;20063;-75
2022/12/09 10:31:12;;;;;;;5.03;3.05;;;;;;;6.56;100.00;99387.25;5079343;28;20036;-75
2022/12/09 10:33:39;;;;;;;4.40;2.70;;;;;;;6.61;100.00;99369.50;5084257;28;20103;-74
2022/12/09 10:36:14;;;;;;;2.67;1.58;;;;;;;6.68;100.00;99369.72;5085086;28;20111;-74
2022/12/09 10:38:40;;;;;;;2.30;1.35;;;;;;;6.72;100.00;99371.84;5080473;28;20036;-74
2022/12/09 10:43:33;;;;;;;3.08;2.08;;;;;;;6.73;100.00;99360.53;5081937;28;20497;-74
2022/12/09 10:44:31;;;;;;;4.05;2.42;;;;;;;6.69;100.00;99350.63;5090497;28;20387;-75
2022/12/09 10:47:01;;;;;;;3.60;2.30;;;;;;;6.66;100.00;99347.38;5081463;28;20128;-74
2022/12/09 10:49:27;;;;;;;5.72;3.10;;;;;;;6.61;100.00;99335.84;5091129;28;20028;-74
2022/12/09 10:51:53;;;;;;;2.88;1.50;;;;;;;6.52;100.00;99326.38;5090805;28;20036;-74
2022/12/09 10:54:30;;;;;;;3.30;1.60;;;;;;;6.55;100.00;99320.91;5086537;28;20036;-74
2022/12/09 10:57:06;;;;;;;5.22;1.30;;;;;;;6.72;100.00;99308.91;5080176;28;20047;-75
2022/12/09 10:59:33;;;;;;;2.38;1.40;;;;;;;6.82;100.00;99287.19;5083269;28;20028;-74
2022/12/09 11:02:08;;;;;;;1.30;0.70;;;;;;;7.02;100.00;99300.78;5077584;28;20031;-74
2022/12/09 11:04:37;;;;;;;1.70;0.73;;;;;;;7.01;100.00;99298.34;5098345;28;20093;-74
2022/12/09 11:07:09;;;;;;;1.90;0.50;;;;;;;6.86;100.00;99290.28;5090488;28;20028;-74
2022/12/09 11:09:37;;;;;;;1.80;0.55;;;;;;;6.76;100.00;99282.59;5096694;28;20042;-74
2022/12/09 11:12:05;;;;;;;1.00;0.40;;;;;;;6.70;100.00;99280.59;5091053;28;20040;-74
2022/12/09 11:14:38;;;;;;;2.08;0.60;;;;;;;6.71;100.00;99282.22;5085343;28;20034;-74
2022/12/09 11:17:16;;;;;;;1.67;0.80;;;;;;;6.71;100.00;99271.88;5071198;28;20111;-74
2022/12/09 11:19:45;;;;;;;2.20;0.90;;;;;;;6.73;100.00;99272.53;5071027;28;20031;-75
2022/12/09 11:22:32;;;;;;;2.95;1.30;;;;;;;6.73;100.00;99274.31;5077170;28;20399;-74
2022/12/09 11:25:19;;;;;;;3.08;1.20;;;;;;;6.72;100.00;99263.13;5085487;28;20506;-74
2022/12/09 11:27:50;;;;;;;2.50;1.17;;;;;;;6.71;100.00;99240.81;5083960;28;20032;-73
2022/12/09 11:30:53;;;;;;;2.70;1.33;;;;;;;6.75;100.00;99233.56;5083503;28;20032;-72
2022/12/09 11:33:33;;;;;;;2.30;0.90;;;;;;;6.75;100.00;99225.78;5085761;28;20094;-74
2022/12/09 11:35:59;;;;;;;2.95;1.02;;;;;;;6.69;100.00;99222.03;5084839;28;20107;-75
2022/12/09 11:38:33;;;;;;;1.73;0.70;;;;;;;6.73;100.00;99204.41;5068173;28;20188;-74
2022/12/09 11:41:05;;;;;;;1.85;0.85;;;;;;;6.78;100.00;99190.06;5081312;28;20044;-75